Mancos, CO (81328)

7:52 PM MDT on August 03, 2015 (GMT -0600)
East Canyon | | Change Station
CLOSE
Current Station
Personal Weather Station
Location: Mancos, CO
Elevation: 7550 ft
Nearby Weather Stations

Elev 7550 ft 37.30 °N, 108.23 °W | Updated 41 minutes ago

Partly Cloudy
Partly Cloudy
71.6 °F
Feels Like 77 °F
N
1.0
Wind Variable Wind from NE
Gusts 10.0 mph

Today
High -- | Low -- °F
--% Chance of Precip.
Yesterday
High -- | Low -- °F
Precip. -- in
6:19 AM 8:19 PM
Waning Gibbous, 82% visible
Pressure 29.91 in
Visibility 10.0 miles
Clouds Clear
Heat Index 77 °F
Dew Point 43 °F
Humidity 36%
Rainfall 0.00 in
Snow Depth Not available.
UV 1 out of 12
Pollen 4.00 out of 12
Air Quality Not available.
Flu Activity Not available.
METAR KCEZ 040053Z AUTO 28010KT 10SM CLR 27/07 A3013 RMK AO2 LTG DSNT N AND NE SLP127 T02720067

More Conditions Fewer Conditions

Pressure 29.91 in
Visibility 10.0 miles
Clouds Clear
Heat Index 77 °F
Dew Point 43 °F
Humidity 36%
Rainfall 0.00 in
Snow Depth Not available.
UV 1 out of 12
Pollen 4.00 out of 12
Air Quality Not available.
Flu Activity Not available.
METAR KCEZ 040053Z AUTO 28010KT 10SM CLR 27/07 A3013 RMK AO2 LTG DSNT N AND NE SLP127 T02720067

More Conditions Fewer Conditions

10-Day Weather Forecast

×

Almanac

Astronomy

Aug. 03, 2015 Rise Set
Actual Time
Civil Twilight
Nautical Twilight
Astronomical Twilight
Moon
Length of Visible Light
Length of Day
Tomorrow will be .
, % of the Moon is Illuminated

Today's Extremes

State Highs State Lows

Community

WunderPhotos

Upload Photos

1,843,820 photos uploaded!

WunderBlogs® & News

Nearby

Air Quality

  Air Quality AQ Index Pollutant
Not available.

Snow Depth

Station Depth Elevation

Earthquake Activity

City Distance Mag. Time & Date
Minimum magnitude displayed is 2.5.

Coastal Water Temperatures

Place Temperature

Stations

Nearby Weather Stations

Station Location Temp. Windchill Dew Point Humidity Wind Precip. Elev Updated Type
                   
Areal Flood Advisory
Statement as of 6:27 PM MDT on August 03, 2015

... The Arroyo and Small Stream Flood Advisory remains in effect until
900 PM MDT for west central San Miguel and northwestern Dolores
counties...

At 627 PM MDT... Doppler radar indicated heavy rain due to
thunderstorms. This will cause Arroyo and Small Stream flooding in
the advisory area. Radar estimates more than one inch of rain has
already fallen.

Some locations that will experience flooding include...
Egnar.

Additional rainfall of one half inch is expected over the area.

This additional rain will make minor flooding.

Precautionary/preparedness actions...

To report flooding... have the nearest law enforcement agency relay
your report to the National Weather Service forecast office.


Lat... Lon 3797 10882 3787 10891 3791 10904 3797 10900
      3802 10893


Jam